createdAt,value
2022-09-17T00:01:40.229Z,7.20
2022-09-17T00:04:11.138Z,7.17
2022-09-17T00:06:38.650Z,6.90
2022-09-17T00:09:07.674Z,6.90
2022-09-17T00:11:39.297Z,7.43
2022-09-17T00:14:09.189Z,6.30
2022-09-17T00:16:39.397Z,6.40
2022-09-17T00:19:10.060Z,6.90
2022-09-17T00:21:37.531Z,6.90
2022-09-17T00:24:06.696Z,7.03
2022-09-17T00:26:36.635Z,7.30
2022-09-17T00:29:04.841Z,7.60
2022-09-17T00:31:33.030Z,7.90
2022-09-17T00:34:01.867Z,7.70
2022-09-17T00:36:29.490Z,7.40
2022-09-17T00:38:59.282Z,8.13
2022-09-17T00:41:28.205Z,8.30
2022-09-17T00:43:59.462Z,8.00
2022-09-17T00:46:32.767Z,8.67
2022-09-17T00:49:04.231Z,8.27
2022-09-17T00:51:35.685Z,8.73
2022-09-17T00:54:04.986Z,8.77
2022-09-17T00:56:34.109Z,8.60
2022-09-17T00:59:03.745Z,8.53
2022-09-17T01:01:31.596Z,8.37
2022-09-17T01:03:59.326Z,8.20
2022-09-17T01:06:33.420Z,8.93
2022-09-17T01:09:11.521Z,8.60
2022-09-17T01:11:53.878Z,9.80
2022-09-17T01:14:35.848Z,10.20
2022-09-17T01:17:09.112Z,9.83
2022-09-17T01:20:05.129Z,10.47
2022-09-17T01:22:34.998Z,11.30
2022-09-17T01:25:17.971Z,10.57
2022-09-17T01:28:12.386Z,10.27
2022-09-17T01:30:55.660Z,10.43
2022-09-17T01:33:28.667Z,10.87
2022-09-17T01:36:03.769Z,11.10
2022-09-17T01:38:34.473Z,11.23
2022-09-17T01:41:07.688Z,10.97
2022-09-17T01:43:39.241Z,10.87
2022-09-17T01:46:11.268Z,11.20
2022-09-17T01:48:42.950Z,11.00
2022-09-17T01:51:12.687Z,10.83
2022-09-17T01:53:44.394Z,11.03
2022-09-17T01:56:16.298Z,11.20
2022-09-17T01:58:46.091Z,10.77
2022-09-17T02:01:17.389Z,11.23
2022-09-17T02:03:49.267Z,11.53
2022-09-17T02:06:19.205Z,11.83
2022-09-17T02:08:49.516Z,12.00
2022-09-17T02:11:17.279Z,11.27
2022-09-17T02:13:46.109Z,11.43
2022-09-17T02:16:17.936Z,11.57
2022-09-17T02:18:47.895Z,11.43
2022-09-17T02:21:18.473Z,12.00
2022-09-17T02:23:54.171Z,11.47
2022-09-17T02:26:22.128Z,11.43
2022-09-17T02:28:52.679Z,10.97
2022-09-17T02:31:22.708Z,11.00
2022-09-17T02:33:53.915Z,11.70
2022-09-17T02:36:23.710Z,11.67
2022-09-17T02:38:59.017Z,11.77
2022-09-17T02:41:32.886Z,11.23
2022-09-17T02:44:11.803Z,11.80
2022-09-17T02:46:52.010Z,10.80
2022-09-17T02:49:28.686Z,10.97
2022-09-17T02:52:04.451Z,11.77
2022-09-17T02:54:36.277Z,11.13
2022-09-17T02:57:10.137Z,11.27
2022-09-17T02:59:42.996Z,10.53
2022-09-17T03:02:18.387Z,11.17
2022-09-17T03:04:47.351Z,10.93
2022-09-17T03:07:15.046Z,10.93
2022-09-17T03:09:43.330Z,11.60
2022-09-17T03:12:11.237Z,10.83
2022-09-17T03:14:38.651Z,10.80
2022-09-17T03:17:06.205Z,11.80
2022-09-17T03:19:35.016Z,10.27
2022-09-17T03:22:02.513Z,11.40
2022-09-17T03:24:29.961Z,11.93
2022-09-17T03:26:57.354Z,11.33
2022-09-17T03:29:25.441Z,10.90
2022-09-17T03:31:52.943Z,11.20
2022-09-17T03:34:20.873Z,11.60
2022-09-17T03:36:49.653Z,12.10
2022-09-17T03:39:17.110Z,11.90
2022-09-17T03:41:44.565Z,11.57
2022-09-17T03:44:12.081Z,11.10
2022-09-17T03:46:40.381Z,10.33
2022-09-17T03:49:08.910Z,11.10
2022-09-17T03:51:36.471Z,11.27
2022-09-17T03:54:05.250Z,11.20
2022-09-17T03:56:32.649Z,10.90
2022-09-17T03:59:00.296Z,10.70
2022-09-17T04:01:28.683Z,11.23
2022-09-17T04:03:56.485Z,10.80
2022-09-17T04:06:23.990Z,11.03
2022-09-17T04:08:51.506Z,10.87
2022-09-17T04:11:20.294Z,10.97
2022-09-17T04:13:47.785Z,10.53
2022-09-17T04:16:15.983Z,10.43
2022-09-17T04:18:43.522Z,11.13
2022-09-17T04:21:10.973Z,11.10
2022-09-17T04:23:38.397Z,10.27
2022-09-17T04:26:06.061Z,11.03
2022-09-17T04:28:34.822Z,11.50
2022-09-17T04:31:02.355Z,11.27
2022-09-17T04:33:29.809Z,11.27
2022-09-17T04:35:57.204Z,11.30
2022-09-17T04:38:24.702Z,11.80
2022-09-17T04:40:52.170Z,11.40
2022-09-17T04:43:19.603Z,11.70
2022-09-17T04:45:49.231Z,11.53
2022-09-17T04:48:16.718Z,11.67
2022-09-17T04:50:44.163Z,11.67
2022-09-17T04:53:12.457Z,11.90
2022-09-17T04:55:39.887Z,12.67
2022-09-17T04:58:07.311Z,11.43
2022-09-17T05:00:35.249Z,11.20
2022-09-17T05:03:04.573Z,12.00
2022-09-17T05:05:32.004Z,11.30
2022-09-17T05:07:59.443Z,12.00
2022-09-17T05:10:27.066Z,12.00
2022-09-17T05:12:56.051Z,12.63
2022-09-17T05:15:24.713Z,11.93
2022-09-17T05:17:52.141Z,11.80
2022-09-17T05:20:20.957Z,11.67
2022-09-17T05:22:49.659Z,12.10
2022-09-17T05:25:18.636Z,12.07
2022-09-17T05:27:46.102Z,12.27
2022-09-17T05:30:13.976Z,12.07
2022-09-17T05:32:41.598Z,12.20
2022-09-17T05:35:10.251Z,11.83
2022-09-17T05:37:39.277Z,12.10
2022-09-17T05:40:08.747Z,12.03
2022-09-17T05:42:36.371Z,12.20
2022-09-17T05:45:04.369Z,12.47
2022-09-17T05:47:31.879Z,12.03
2022-09-17T05:49:59.686Z,12.40
2022-09-17T05:52:28.727Z,12.23
2022-09-17T05:54:57.595Z,12.20
2022-09-17T05:57:25.594Z,12.10
2022-09-17T05:59:53.021Z,11.87
2022-09-17T06:02:20.542Z,12.90
2022-09-17T06:04:48.049Z,12.40
2022-09-17T06:07:15.499Z,12.70
2022-09-17T06:09:42.921Z,12.53
2022-09-17T06:12:11.725Z,11.83
2022-09-17T06:14:39.149Z,12.10
2022-09-17T06:17:06.569Z,12.43
2022-09-17T06:19:33.997Z,12.47
2022-09-17T06:22:01.704Z,12.50
2022-09-17T06:24:29.246Z,12.70
2022-09-17T06:26:56.692Z,13.30
2022-09-17T06:29:25.520Z,13.00
2022-09-17T06:31:54.019Z,13.57
2022-09-17T06:34:21.562Z,13.63
2022-09-17T06:36:49.742Z,14.20
2022-09-17T06:39:17.338Z,14.97
2022-09-17T06:41:45.557Z,15.20
2022-09-17T06:44:13.034Z,14.70
2022-09-17T06:46:42.939Z,15.77
2022-09-17T06:49:11.586Z,15.63
2022-09-17T06:51:38.986Z,15.53
2022-09-17T06:54:06.527Z,16.10
2022-09-17T06:56:34.512Z,16.03
2022-09-17T06:59:02.217Z,15.93
2022-09-17T07:01:29.938Z,15.77
2022-09-17T07:03:59.952Z,16.60
2022-09-17T07:06:27.413Z,16.63
2022-09-17T07:08:54.928Z,17.23
2022-09-17T07:11:22.365Z,16.30
2022-09-17T07:13:49.854Z,15.87
2022-09-17T07:16:17.479Z,16.10
2022-09-17T07:18:45.057Z,15.23
2022-09-17T07:21:14.512Z,14.60
2022-09-17T07:23:42.859Z,14.60
2022-09-17T07:26:14.672Z,15.03
2022-09-17T07:28:43.596Z,15.60
2022-09-17T07:31:16.139Z,15.77
2022-09-17T07:33:45.095Z,16.30
2022-09-17T07:36:15.451Z,16.30
2022-09-17T07:38:42.965Z,16.93
2022-09-17T07:41:13.343Z,16.67
2022-09-17T07:43:40.831Z,17.27
2022-09-17T07:46:10.145Z,17.20
2022-09-17T07:48:37.846Z,17.30
2022-09-17T07:51:05.541Z,17.60
2022-09-17T07:53:34.297Z,17.37
2022-09-17T07:56:02.714Z,18.03
2022-09-17T07:58:31.473Z,18.10
2022-09-17T08:01:03.040Z,17.63
2022-09-17T08:03:30.571Z,17.60
2022-09-17T08:06:03.858Z,18.40
2022-09-17T08:08:34.023Z,18.03
2022-09-17T08:11:02.946Z,17.87
2022-09-17T08:13:33.514Z,17.40
2022-09-17T08:16:01.773Z,17.97
2022-09-17T08:18:29.885Z,18.23
2022-09-17T08:20:58.090Z,18.60
2022-09-17T08:23:25.704Z,18.33
2022-09-17T08:25:55.381Z,18.33
2022-09-17T08:28:22.915Z,19.00
2022-09-17T08:30:50.438Z,19.10
2022-09-17T08:33:18.150Z,19.03
2022-09-17T08:35:52.077Z,19.13
2022-09-17T08:38:19.728Z,19.17
2022-09-17T08:40:57.404Z,19.43
2022-09-17T08:43:25.899Z,19.10
2022-09-17T08:45:54.939Z,18.97
2022-09-17T08:48:22.899Z,18.93
2022-09-17T08:50:50.851Z,19.57
2022-09-17T08:53:34.947Z,19.00
2022-09-17T08:56:09.516Z,19.07
2022-09-17T08:58:58.726Z,19.40
2022-09-17T09:01:35.658Z,20.07
2022-09-17T09:04:31.126Z,19.97
2022-09-17T09:07:02.482Z,20.03
2022-09-17T09:09:34.581Z,20.00
2022-09-17T09:12:06.527Z,19.50
2022-09-17T09:14:37.157Z,19.67
2022-09-17T09:17:09.017Z,20.10
2022-09-17T09:19:45.013Z,20.27
2022-09-17T09:22:24.394Z,20.53
2022-09-17T09:25:00.358Z,20.07
2022-09-17T09:27:29.879Z,20.67
2022-09-17T09:30:03.840Z,20.47
2022-09-17T09:32:45.259Z,20.97
2022-09-17T09:35:18.849Z,21.17
2022-09-17T09:37:53.554Z,20.40
2022-09-17T09:40:27.177Z,19.90
2022-09-17T09:42:57.467Z,19.63
2022-09-17T09:45:33.450Z,19.40
2022-09-17T09:48:04.511Z,20.37
2022-09-17T09:51:04.719Z,19.10
2022-09-17T09:53:32.601Z,19.60
2022-09-17T09:56:07.409Z,19.30
2022-09-17T09:58:38.411Z,19.90
2022-09-17T10:01:12.522Z,19.80
2022-09-17T10:03:45.869Z,19.80
2022-09-17T10:06:14.448Z,19.67
2022-09-17T10:08:43.610Z,19.90
2022-09-17T10:11:21.526Z,19.90
2022-09-17T10:13:50.459Z,20.50
2022-09-17T10:16:21.184Z,20.00
2022-09-17T10:18:49.508Z,19.80
2022-09-17T10:21:20.959Z,19.50
2022-09-17T10:23:48.706Z,19.80
2022-09-17T10:26:22.833Z,19.60
2022-09-17T10:28:52.824Z,19.70
2022-09-17T10:31:20.854Z,19.70
2022-09-17T10:33:57.482Z,19.93
2022-09-17T10:36:42.192Z,20.07
2022-09-17T10:39:21.099Z,19.50
2022-09-17T10:41:54.886Z,19.47
2022-09-17T10:44:25.334Z,19.20
2022-09-17T10:46:53.391Z,19.27
2022-09-17T10:49:32.451Z,19.63
2022-09-17T10:52:12.461Z,19.87
2022-09-17T10:55:06.143Z,19.57
2022-09-17T10:57:55.074Z,19.80
2022-09-17T11:00:24.589Z,19.27
2022-09-17T11:03:24.397Z,19.63
2022-09-17T11:06:15.506Z,19.73
2022-09-17T11:08:49.631Z,19.30
2022-09-17T11:11:19.988Z,19.20
2022-09-17T11:13:53.211Z,26.50
2022-09-17T11:16:35.531Z,24.80
2022-09-17T11:19:11.987Z,22.37
2022-09-17T11:21:46.663Z,22.67
2022-09-17T11:24:48.269Z,22.37
2022-09-17T11:27:35.719Z,19.90
2022-09-17T11:30:06.168Z,21.33
2022-09-17T11:33:03.938Z,18.93
2022-09-17T11:35:33.445Z,17.83
2022-09-17T11:38:04.969Z,17.80
2022-09-17T11:40:37.714Z,17.30
2022-09-17T11:43:08.447Z,18.37
2022-09-17T11:45:39.376Z,18.53
2022-09-17T11:48:12.537Z,18.70
2022-09-17T11:50:43.612Z,18.80
2022-09-17T11:53:16.572Z,19.83
2022-09-17T11:55:48.450Z,19.43
2022-09-17T11:58:20.625Z,19.47
2022-09-17T12:00:52.223Z,19.57
2022-09-17T12:03:26.843Z,19.57
2022-09-17T12:05:56.369Z,19.90
2022-09-17T12:08:27.157Z,19.17
2022-09-17T12:10:59.921Z,19.40
2022-09-17T12:13:32.153Z,19.33
2022-09-17T12:16:10.757Z,19.57
2022-09-17T12:18:47.926Z,19.67
2022-09-17T12:21:18.809Z,19.97
2022-09-17T12:23:49.391Z,19.50
2022-09-17T12:26:35.297Z,19.47
2022-09-17T12:29:06.884Z,19.60
2022-09-17T12:31:44.520Z,19.27
2022-09-17T12:34:23.732Z,19.53
2022-09-17T12:36:52.702Z,19.53
2022-09-17T12:39:51.319Z,19.63
2022-09-17T12:42:31.204Z,19.73
2022-09-17T12:45:17.018Z,19.40
2022-09-17T12:48:22.700Z,19.60
2022-09-17T12:50:59.761Z,19.43
2022-09-17T12:53:30.561Z,19.20
2022-09-17T12:56:07.216Z,19.47
2022-09-17T12:58:44.263Z,19.70
2022-09-17T13:01:15.280Z,19.57
2022-09-17T13:03:45.630Z,19.93
2022-09-17T13:06:36.133Z,20.10
2022-09-17T13:09:11.366Z,19.43
2022-09-17T13:12:07.726Z,20.27
2022-09-17T13:14:51.742Z,20.00
2022-09-17T13:17:23.989Z,19.90
2022-09-17T13:20:00.441Z,19.87
2022-09-17T13:22:33.412Z,19.90
2022-09-17T13:25:06.577Z,19.70
2022-09-17T13:27:38.597Z,20.30
2022-09-17T13:30:07.681Z,19.50
2022-09-17T13:32:55.031Z,19.83
2022-09-17T13:35:50.812Z,19.30
2022-09-17T13:38:23.796Z,19.30
2022-09-17T13:40:52.093Z,19.10
2022-09-17T13:43:23.970Z,19.27
2022-09-17T13:46:12.596Z,19.37
2022-09-17T13:49:01.954Z,19.30
2022-09-17T13:51:59.385Z,19.30
2022-09-17T13:54:38.792Z,18.93
2022-09-17T13:57:14.141Z,19.00
2022-09-17T13:59:54.805Z,18.70
2022-09-17T14:02:36.566Z,18.27
2022-09-17T14:05:34.257Z,18.17
2022-09-17T14:08:30.418Z,18.87
2022-09-17T14:11:02.542Z,18.60
2022-09-17T14:13:42.982Z,18.30
2022-09-17T14:16:45.877Z,18.20
2022-09-17T14:19:30.515Z,18.23
2022-09-17T14:22:03.693Z,18.80
2022-09-17T14:24:36.252Z,19.03
2022-09-17T14:27:27.199Z,18.70
2022-09-17T14:30:05.303Z,19.30
2022-09-17T14:32:39.402Z,19.17
2022-09-17T14:35:19.905Z,19.30
2022-09-17T14:37:51.953Z,19.43
2022-09-17T14:40:21.002Z,19.30
2022-09-17T14:42:55.053Z,19.37
2022-09-17T14:45:25.098Z,19.43
2022-09-17T14:48:21.087Z,19.60
2022-09-17T14:50:48.670Z,19.10
2022-09-17T14:53:18.830Z,19.10
2022-09-17T14:55:47.690Z,19.60
2022-09-17T14:58:32.269Z,19.60
2022-09-17T15:00:59.945Z,18.90
2022-09-17T15:03:27.656Z,19.17
2022-09-17T15:05:55.429Z,18.70
2022-09-17T15:08:24.433Z,18.60
2022-09-17T15:10:54.318Z,18.53
2022-09-17T15:13:26.576Z,18.73
2022-09-17T15:15:59.077Z,19.20
2022-09-17T15:18:33.852Z,18.57
2022-09-17T15:21:03.498Z,18.53
2022-09-17T15:23:32.475Z,18.47
2022-09-17T15:26:00.501Z,18.50
2022-09-17T15:28:30.798Z,18.60
2022-09-17T15:30:59.701Z,18.30
2022-09-17T15:33:27.819Z,18.50
2022-09-17T15:36:10.056Z,18.37
2022-09-17T15:38:39.202Z,18.27
2022-09-17T15:41:24.455Z,18.93
2022-09-17T15:43:54.669Z,18.50
2022-09-17T15:46:30.123Z,19.50
2022-09-17T15:48:59.609Z,19.43
2022-09-17T15:51:28.670Z,18.10
2022-09-17T15:53:58.963Z,17.83
2022-09-17T15:56:29.141Z,17.30
2022-09-17T15:59:00.846Z,16.87
2022-09-17T16:01:54.867Z,17.57
2022-09-17T16:04:28.754Z,17.63
2022-09-17T16:06:58.929Z,17.80
2022-09-17T16:09:53.819Z,17.33
2022-09-17T16:12:22.967Z,16.90
2022-09-17T16:14:52.371Z,17.30
2022-09-17T16:17:25.837Z,18.10
2022-09-17T16:19:55.677Z,16.97
2022-09-17T16:22:23.495Z,16.93
2022-09-17T16:24:50.938Z,17.10
2022-09-17T16:27:22.083Z,17.80
2022-09-17T16:29:50.289Z,17.80
2022-09-17T16:32:17.794Z,17.97
2022-09-17T16:34:45.254Z,17.80
2022-09-17T16:37:14.101Z,18.27
2022-09-17T16:39:41.803Z,17.43
2022-09-17T16:42:09.279Z,18.00
2022-09-17T16:44:36.887Z,18.30
2022-09-17T16:47:04.584Z,17.33
2022-09-17T16:49:32.125Z,18.10
2022-09-17T16:51:59.604Z,17.97
2022-09-17T16:54:28.454Z,18.50
2022-09-17T16:56:56.454Z,18.27
2022-09-17T16:59:26.259Z,18.50
2022-09-17T17:01:53.800Z,19.10
2022-09-17T17:04:21.424Z,18.93
2022-09-17T17:06:48.938Z,18.10
2022-09-17T17:09:16.647Z,19.07
2022-09-17T17:11:51.789Z,18.00
2022-09-17T17:14:19.542Z,18.13
2022-09-17T17:16:47.155Z,18.20
2022-09-17T17:19:14.733Z,16.73
2022-09-17T17:21:47.155Z,16.90
2022-09-17T17:24:14.896Z,16.93
2022-09-17T17:26:42.380Z,16.10
2022-09-17T17:29:14.412Z,16.33
2022-09-17T17:31:42.310Z,16.17
2022-09-17T17:34:10.452Z,16.53
2022-09-17T17:36:37.896Z,16.10
2022-09-17T17:39:05.384Z,15.33
2022-09-17T17:41:32.927Z,15.70
2022-09-17T17:44:00.503Z,15.30
2022-09-17T17:46:29.341Z,15.10
2022-09-17T17:48:56.971Z,14.90
2022-09-17T17:51:27.465Z,14.80
2022-09-17T17:53:54.902Z,14.50
2022-09-17T17:56:23.376Z,14.17
2022-09-17T17:58:55.085Z,13.80
2022-09-17T18:01:24.845Z,13.60
2022-09-17T18:03:56.986Z,14.00
2022-09-17T18:06:28.061Z,12.77
2022-09-17T18:08:56.195Z,13.47
2022-09-17T18:11:24.470Z,13.47
2022-09-17T18:13:52.765Z,13.27
2022-09-17T18:16:20.343Z,13.60
2022-09-17T18:18:48.200Z,13.30
2022-09-17T18:21:18.949Z,13.40
2022-09-17T18:23:46.721Z,14.20
2022-09-17T18:26:15.392Z,14.20
2022-09-17T18:28:42.924Z,14.33
2022-09-17T18:31:12.740Z,14.40
2022-09-17T18:33:40.250Z,14.43
2022-09-17T18:36:07.803Z,14.07
2022-09-17T18:38:39.427Z,14.00
2022-09-17T18:41:08.475Z,13.43
2022-09-17T18:43:35.975Z,13.27
2022-09-17T18:46:05.365Z,13.53
2022-09-17T18:48:36.289Z,13.33
2022-09-17T18:51:06.171Z,13.27
2022-09-17T18:53:37.010Z,13.13
2022-09-17T18:56:06.595Z,13.57
2022-09-17T18:58:34.894Z,13.70
2022-09-17T19:01:05.879Z,13.43
2022-09-17T19:03:33.373Z,13.27
2022-09-17T19:06:01.200Z,13.00
2022-09-17T19:08:28.701Z,13.33
2022-09-17T19:10:57.775Z,13.00
2022-09-17T19:13:27.059Z,12.67
2022-09-17T19:15:59.074Z,13.40
2022-09-17T19:18:26.670Z,12.80
2022-09-17T19:21:00.085Z,12.83
2022-09-17T19:23:27.534Z,13.03
2022-09-17T19:25:55.041Z,13.43
2022-09-17T19:28:23.993Z,13.10
2022-09-17T19:30:51.569Z,13.33
2022-09-17T19:33:19.115Z,14.00
2022-09-17T19:35:46.698Z,13.00
2022-09-17T19:38:14.181Z,13.47
2022-09-17T19:40:41.810Z,13.00
2022-09-17T19:43:09.318Z,12.80
2022-09-17T19:45:38.277Z,13.13
2022-09-17T19:48:05.751Z,13.37
2022-09-17T19:50:33.253Z,14.00
2022-09-17T19:53:00.752Z,13.97
2022-09-17T19:55:28.218Z,14.00
2022-09-17T19:57:55.686Z,13.43
2022-09-17T20:00:23.274Z,13.27
2022-09-17T20:02:52.327Z,13.67
2022-09-17T20:05:19.805Z,13.70
2022-09-17T20:07:47.904Z,13.10
2022-09-17T20:10:15.531Z,13.43
2022-09-17T20:12:43.047Z,13.17
2022-09-17T20:15:11.496Z,13.50
2022-09-17T20:17:39.017Z,13.50
2022-09-17T20:20:09.694Z,13.87
2022-09-17T20:22:37.215Z,12.53
2022-09-17T20:25:05.323Z,12.43
2022-09-17T20:27:33.165Z,12.23
2022-09-17T20:30:00.652Z,12.13
2022-09-17T20:32:28.552Z,11.57
2022-09-17T20:34:56.071Z,11.67
2022-09-17T20:38:01.684Z,11.33
2022-09-17T20:40:12.506Z,10.90
2022-09-17T20:42:40.121Z,10.57
2022-09-17T20:45:08.316Z,9.97
2022-09-17T20:47:36.504Z,9.93
2022-09-17T20:50:04.004Z,9.77
2022-09-17T20:52:33.250Z,9.73
2022-09-17T20:55:00.739Z,9.33
2022-09-17T20:57:28.233Z,9.20
2022-09-17T21:00:00.249Z,9.47
2022-09-17T21:02:28.116Z,9.50
2022-09-17T21:04:55.662Z,9.70
2022-09-17T21:07:23.193Z,9.90
2022-09-17T21:09:52.022Z,10.20
2022-09-17T21:12:20.807Z,10.00
2022-09-17T21:14:49.766Z,9.77
2022-09-17T21:17:17.380Z,10.30
2022-09-17T21:19:44.950Z,9.80
2022-09-17T21:22:12.394Z,9.93
2022-09-17T21:24:39.890Z,9.93
2022-09-17T21:27:09.269Z,9.73
2022-09-17T21:29:36.759Z,10.10
2022-09-17T21:32:04.258Z,8.87
2022-09-17T21:34:31.727Z,8.60
2022-09-17T21:36:59.225Z,9.40
2022-09-17T21:39:26.698Z,8.80
2022-09-17T21:41:54.545Z,8.33
2022-09-17T21:44:23.454Z,8.23
2022-09-17T21:46:57.080Z,7.97
2022-09-17T21:49:24.760Z,8.40
2022-09-17T21:51:52.302Z,7.77
2022-09-17T21:54:19.961Z,7.40
2022-09-17T21:56:47.834Z,7.67
2022-09-17T21:59:16.301Z,7.20
2022-09-17T22:01:50.175Z,7.20
2022-09-17T22:04:19.511Z,7.77
2022-09-17T22:06:47.943Z,7.20
2022-09-17T22:09:17.913Z,6.60
2022-09-17T22:11:45.392Z,7.37
2022-09-17T22:14:14.573Z,7.20
2022-09-17T22:16:45.070Z,6.87
2022-09-17T22:19:15.033Z,6.80
2022-09-17T22:21:44.547Z,6.77
2022-09-17T22:24:12.333Z,7.33
2022-09-17T22:26:43.227Z,7.30
2022-09-17T22:29:12.639Z,7.33
2022-09-17T22:31:40.927Z,7.87
2022-09-17T22:34:11.001Z,7.10
2022-09-17T22:36:39.428Z,7.17
2022-09-17T22:39:09.280Z,8.00
2022-09-17T22:41:39.083Z,7.27
2022-09-17T22:44:08.054Z,6.80
2022-09-17T22:46:39.029Z,6.97
2022-09-17T22:49:07.221Z,6.90
2022-09-17T22:51:36.394Z,6.30
2022-09-17T22:54:04.472Z,6.47
2022-09-17T22:56:32.041Z,6.30
2022-09-17T22:58:59.895Z,6.47
2022-09-17T23:01:29.698Z,6.70
2022-09-17T23:03:57.951Z,6.40
2022-09-17T23:06:27.070Z,6.10
2022-09-17T23:08:56.438Z,6.23
2022-09-17T23:11:26.409Z,6.70
2022-09-17T23:13:57.474Z,6.23
2022-09-17T23:16:25.944Z,6.47
2022-09-17T23:18:53.541Z,6.47
2022-09-17T23:21:21.622Z,7.00
2022-09-17T23:23:52.250Z,6.10
2022-09-17T23:26:22.833Z,6.53
2022-09-17T23:28:51.263Z,6.30
2022-09-17T23:31:20.975Z,6.73
2022-09-17T23:33:49.070Z,6.27
2022-09-17T23:36:19.218Z,6.63
2022-09-17T23:38:47.896Z,6.70
2022-09-17T23:41:16.999Z,7.30
2022-09-17T23:43:48.972Z,6.47
2022-09-17T23:46:16.900Z,6.57
2022-09-17T23:48:44.815Z,6.17
2022-09-17T23:51:12.348Z,6.20
2022-09-17T23:53:39.941Z,6.10
2022-09-17T23:56:13.110Z,5.93
2022-09-17T23:58:40.678Z,6.13
